Fayetteville, Texas
Current Conditions -  °F | °C
As of 2:15 AM on Thursday 29 Jan 2015 (Local Time) from K3T5 Reporting Station
Overcast Overcast  
Wind Chill: 61°   Ceiling: 500
Heat Index: 61°   Visibility: 7mi
Dew Point: 60°   Wind: 9mph
Humidity: 97%   Direction: 200°SSW
Pressure: 30.13"   Gusts: 16mph
Location:  29.91°N, 96.67°W
Report Text: K3T5 290815Z AUTO 20008G14KT 7SM OVC005 16/16 A3013 RMK AO2 T01630158
Loading
Personal Weather Stations






























Interactive Weather Map New forecast layout! Learn more

10-Day Weather Forecast

Advertisements
Track Severe Weather on mobile